CheckWX is a tool to help pilots better visualize weather data.  It is not intended as a substitute for an official pre-flight weather briefing.

22:10:32 UTC

EPSC TAF
Szczecin-Goleniów "Solidarność" Airport
Goleniow, Poland
TAF AMD EPSC 202126Z 2021/2118 25007KT 4000 BR BKN014 TEMPO 2021/2108 2000 -DZ BR BKN007 PROB40 2023/2107 1400 BR BKN003 BECMG 2109/2112 BKN020

Mar-20@
21:00 UTC

Mar-20 @ 21:00 UTC

Mar-21@
09:00 UTC

Mar-21 @ 09:00 UTC

TAF AMD EPSC 202126Z 2021/2118 25007KT 4000 BR BKN014
Wind
  • 250° at 7 KTS
Conditions
Mist
Cloud Levels
  • Broken at 1,400' AGL

Mar-20@
21:00 UTC

Mar-20 @ 21:00 UTC

Mar-21@
08:00 UTC

Mar-21 @ 08:00 UTC

TEMPO 2021/2108 2000 -DZ BR BKN007

Temporary

Temporary Changes expected for less than half the time period

Conditions
Light Drizzle, Mist
Cloud Levels
  • Broken at 700' AGL

Mar-20@
23:00 UTC

Mar-20 @ 23:00 UTC

Mar-21@
07:00 UTC

Mar-21 @ 07:00 UTC

PROB40 2023/2107 1400 BR BKN003

Probable - 40% Likelihood

Probable - 40% Likelihood during this time.

Conditions
Mist
Cloud Levels
  • Broken at 300' AGL

Mar-21@
09:00 UTC

Mar-21 @ 09:00 UTC

Mar-21@
18:00 UTC

Mar-21 @ 18:00 UTC

BECMG 2109/2112 BKN020

Becoming

Becoming Conditions expected by Thu, Mar 21, 2019 @ 12:00 UTC

Wind
  • 250° at 7 KTS
Conditions
Mist
Cloud Levels
  • Broken at 2,000' AGL